Time;durP1;ratioP1;P1;durP2;ratioP2;P2;SDS_P1;SDS_P2;PMS_P1;PMS_P2;Temp;Humidity;BMP_temperature;BMP_pressure;BME280_temperature;BME280_humidity;BME280_pressure;Samples;Min_cycle;Max_cycle;Signal;HPM_P1;HPM_P2
2023/12/23 00:00:12;;;;;;;;;;;2.60;89.30;;;;;;4994912;28;87946;-50
2023/12/23 00:02:38;;;;;;;;;;;2.60;89.40;;;;;;5001458;28;88706;-53
2023/12/23 00:05:03;;;;;;;;;;;2.60;89.10;;;;;;4996857;28;87391;-51
2023/12/23 00:07:29;;;;;;;;;;;2.60;89.10;;;;;;4996008;28;86963;-52
2023/12/23 00:09:54;;;;;;;;;;;2.60;89.30;;;;;;4995435;28;86914;-50
2023/12/23 00:12:20;;;;;;;;;;;2.50;89.10;;;;;;4997580;28;87338;-54
2023/12/23 00:14:46;;;;;;;;;;;2.60;89.10;;;;;;5001162;28;87090;-52
2023/12/23 00:17:11;;;;;;;;;;;2.50;89.20;;;;;;4995556;28;87767;-50
2023/12/23 00:19:37;;;;;;;;;;;2.50;89.20;;;;;;5000247;28;87032;-51
2023/12/23 00:22:02;;;;;;;;;;;2.50;89.30;;;;;;4994735;28;87049;-50
2023/12/23 00:24:29;;;;;;;;;;;2.60;89.20;;;;;;4996695;28;89351;-50
2023/12/23 00:26:57;;;;;;;;;;;2.50;89.30;;;;;;4998167;28;87061;-51
2023/12/23 00:29:25;;;;;;;;;;;2.50;89.30;;;;;;5001625;28;87155;-51
2023/12/23 00:31:51;;;;;;;;;;;2.50;89.30;;;;;;4993649;28;88563;-50
2023/12/23 00:34:17;;;;;;;;;;;2.60;89.40;;;;;;4998451;28;86974;-52
2023/12/23 00:36:43;;;;;;;;;;;2.60;89.30;;;;;;4998907;28;86974;-51
2023/12/23 00:39:08;;;;;;;;;;;2.50;89.30;;;;;;4998028;28;87029;-50
2023/12/23 00:41:34;;;;;;;;;;;2.50;89.30;;;;;;4995985;28;86221;-49
2023/12/23 00:44:01;;;;;;;;;;;2.50;89.20;;;;;;4993769;28;87664;-52
2023/12/23 00:46:28;;;;;;;;;;;2.50;89.20;;;;;;4997444;28;86843;-53
2023/12/23 00:48:54;;;;;;;;;;;2.50;89.20;;;;;;4995593;28;87684;-53
2023/12/23 00:51:19;;;;;;;;;;;2.50;89.20;;;;;;4997341;28;89099;-53
2023/12/23 00:53:45;;;;;;;;;;;2.50;89.30;;;;;;4994524;28;86912;-51
2023/12/23 00:56:10;;;;;;;;;;;2.50;89.20;;;;;;4999863;28;87080;-53
2023/12/23 00:58:36;;;;;;;;;;;2.50;89.30;;;;;;4993666;28;87054;-52
2023/12/23 01:01:02;;;;;;;;;;;2.50;89.40;;;;;;4993531;28;87052;-51
2023/12/23 01:03:27;;;;;;;;;;;2.50;89.30;;;;;;4998607;28;88317;-51
2023/12/23 01:05:53;;;;;;;;;;;2.50;89.20;;;;;;4997501;28;87757;-50
2023/12/23 01:08:19;;;;;;;;;;;2.50;89.00;;;;;;4999051;28;87366;-51
2023/12/23 01:10:44;;;;;;;;;;;2.50;89.20;;;;;;4995167;28;87482;-50
2023/12/23 01:13:10;;;;;;;;;;;2.50;89.20;;;;;;5000148;28;88376;-53
2023/12/23 01:15:36;;;;;;;;;;;2.50;89.30;;;;;;4999841;28;88029;-50
2023/12/23 01:18:01;;;;;;;;;;;2.50;89.20;;;;;;5002208;28;88472;-51
2023/12/23 01:20:27;;;;;;;;;;;2.50;89.30;;;;;;5001148;28;86852;-55
2023/12/23 01:22:52;;;;;;;;;;;2.50;89.40;;;;;;4996393;28;88538;-52
2023/12/23 01:25:18;;;;;;;;;;;2.50;89.30;;;;;;4996762;28;87088;-54
2023/12/23 01:27:44;;;;;;;;;;;2.50;89.40;;;;;;5003813;28;87085;-51
2023/12/23 01:30:09;;;;;;;;;;;2.50;89.30;;;;;;4998541;28;86244;-51
2023/12/23 01:32:35;;;;;;;;;;;2.50;89.30;;;;;;4999899;28;87643;-52
2023/12/23 01:35:00;;;;;;;;;;;2.50;89.90;;;;;;4998305;28;86980;-54
2023/12/23 01:37:26;;;;;;;;;;;2.50;89.30;;;;;;4999407;28;88434;-54
2023/12/23 01:39:51;;;;;;;;;;;2.50;89.20;;;;;;4999065;28;87301;-52
2023/12/23 01:42:17;;;;;;;;;;;2.50;89.20;;;;;;4998447;28;87476;-51
2023/12/23 01:44:42;;;;;;;;;;;2.50;89.20;;;;;;4998763;28;86912;-53
2023/12/23 01:47:08;;;;;;;;;;;2.50;89.10;;;;;;4996911;28;87114;-51
2023/12/23 01:49:34;;;;;;;;;;;2.50;89.10;;;;;;4996987;28;87189;-53
2023/12/23 01:52:00;;;;;;;;;;;2.50;89.10;;;;;;4996411;28;86946;-52
2023/12/23 01:54:26;;;;;;;;;;;2.50;89.30;;;;;;5000448;28;86771;-50
2023/12/23 01:56:53;;;;;;;;;;;2.40;89.20;;;;;;4996066;28;87415;-49
2023/12/23 01:59:18;;;;;;;;;;;2.50;89.30;;;;;;5001892;28;87090;-51
2023/12/23 02:01:44;;;;;;;;;;;2.50;89.20;;;;;;5009037;28;88626;-51
2023/12/23 02:04:10;;;;;;;;;;;2.40;89.20;;;;;;4998985;28;87023;-53
2023/12/23 02:06:35;;;;;;;;;;;2.40;89.30;;;;;;5000476;28;88681;-52
2023/12/23 02:09:02;;;;;;;;;;;2.50;89.20;;;;;;5000504;28;90047;-53
2023/12/23 02:11:27;;;;;;;;;;;2.40;89.30;;;;;;4997869;28;87146;-54
2023/12/23 02:14:05;;;;;;;;;;;2.40;89.20;;;;;;4997677;28;86934;-53
2023/12/23 02:16:31;;;;;;;;;;;2.40;89.20;;;;;;4995564;28;87673;-54
2023/12/23 02:18:56;;;;;;;;;;;2.40;89.20;;;;;;5003796;28;86167;-50
2023/12/23 02:21:23;;;;;;;;;;;2.50;89.20;;;;;;4996856;28;86987;-50
2023/12/23 02:23:49;;;;;;;;;;;2.40;89.20;;;;;;5001116;28;88370;-52
2023/12/23 02:26:17;;;;;;;;;;;2.40;89.30;;;;;;4996498;28;87911;-52
2023/12/23 02:28:44;;;;;;;;;;;2.40;89.10;;;;;;4997371;28;87366;-50
2023/12/23 02:31:09;;;;;;;;;;;2.40;89.30;;;;;;4998023;28;86972;-51
2023/12/23 02:33:35;;;;;;;;;;;2.40;89.30;;;;;;5000843;28;86987;-52
2023/12/23 02:36:01;;;;;;;;;;;2.50;89.20;;;;;;4998570;28;87452;-51
2023/12/23 02:38:27;;;;;;;;;;;2.40;89.20;;;;;;4996348;28;87047;-53
2023/12/23 02:40:52;;;;;;;;;;;2.40;89.20;;;;;;4999447;28;86848;-53
2023/12/23 02:43:18;;;;;;;;;;;2.40;89.30;;;;;;4999875;28;86788;-52
2023/12/23 02:45:43;;;;;;;;;;;2.40;89.20;;;;;;5002159;28;87545;-52
2023/12/23 02:48:09;;;;;;;;;;;2.40;89.10;;;;;;4995158;28;87475;-53
2023/12/23 02:50:34;;;;;;;;;;;2.40;89.20;;;;;;4993229;28;87998;-51
2023/12/23 02:53:00;;;;;;;;;;;2.40;89.20;;;;;;4999742;28;88900;-51
2023/12/23 02:55:26;;;;;;;;;;;2.40;89.60;;;;;;4997521;28;88562;-53
2023/12/23 02:57:51;;;;;;;;;;;2.40;89.10;;;;;;4999742;28;88534;-53
2023/12/23 03:00:17;;;;;;;;;;;2.40;89.10;;;;;;5000560;28;87409;-50
2023/12/23 03:02:43;;;;;;;;;;;2.40;89.20;;;;;;4998460;28;87227;-53
2023/12/23 03:05:08;;;;;;;;;;;2.40;89.30;;;;;;5000253;28;87044;-51
2023/12/23 03:07:34;;;;;;;;;;;2.40;89.20;;;;;;4996139;28;86167;-52
2023/12/23 03:09:59;;;;;;;;;;;2.40;89.10;;;;;;4993418;28;86946;-50
2023/12/23 03:12:25;;;;;;;;;;;2.40;89.20;;;;;;4995139;28;86987;-50
2023/12/23 03:14:50;;;;;;;;;;;2.40;89.20;;;;;;4994289;28;88324;-52
2023/12/23 03:17:16;;;;;;;;;;;2.40;89.10;;;;;;4998784;28;86893;-52
2023/12/23 03:19:42;;;;;;;;;;;2.40;89.20;;;;;;4994211;28;87229;-52
2023/12/23 03:22:07;;;;;;;;;;;2.40;89.20;;;;;;4994988;28;88237;-50
2023/12/23 03:24:33;;;;;;;;;;;2.40;89.10;;;;;;4998351;28;87022;-52
2023/12/23 03:26:58;;;;;;;;;;;2.40;89.10;;;;;;5000630;28;87095;-51
2023/12/23 03:29:24;;;;;;;;;;;2.40;89.10;;;;;;4991745;28;87509;-52
2023/12/23 03:31:50;;;;;;;;;;;2.40;89.20;;;;;;4994961;28;86785;-51
2023/12/23 03:34:15;;;;;;;;;;;2.40;89.80;;;;;;4999862;28;87413;-50
2023/12/23 03:36:41;;;;;;;;;;;2.40;89.20;;;;;;5001846;28;87009;-52
2023/12/23 03:39:06;;;;;;;;;;;2.40;89.20;;;;;;4994255;28;87915;-50
2023/12/23 03:41:32;;;;;;;;;;;2.40;89.30;;;;;;4995883;28;87278;-52
2023/12/23 03:43:57;;;;;;;;;;;2.40;89.30;;;;;;4997805;28;86983;-51
2023/12/23 03:46:23;;;;;;;;;;;2.40;89.30;;;;;;5001823;28;87246;-53
2023/12/23 03:48:48;;;;;;;;;;;2.40;89.40;;;;;;4997442;28;87567;-52
2023/12/23 03:51:14;;;;;;;;;;;2.40;89.40;;;;;;4994475;28;86941;-51
2023/12/23 03:53:41;;;;;;;;;;;2.40;89.30;;;;;;4996293;28;87672;-51
2023/12/23 03:56:07;;;;;;;;;;;2.40;89.10;;;;;;4998278;28;86262;-52
2023/12/23 03:58:32;;;;;;;;;;;2.40;89.30;;;;;;4999946;28;86955;-52
2023/12/23 04:00:58;;;;;;;;;;;2.40;89.30;;;;;;4995591;28;87378;-50
2023/12/23 04:03:23;;;;;;;;;;;2.40;89.40;;;;;;4996411;28;87979;-51
2023/12/23 04:05:49;;;;;;;;;;;2.40;89.30;;;;;;4995411;28;88588;-53
2023/12/23 04:08:16;;;;;;;;;;;2.40;89.40;;;;;;4998389;28;87403;-52
2023/12/23 04:10:42;;;;;;;;;;;2.40;89.30;;;;;;5001441;28;87001;-53
2023/12/23 04:13:08;;;;;;;;;;;2.40;89.20;;;;;;4997722;28;88433;-51
2023/12/23 04:15:33;;;;;;;;;;;2.40;89.20;;;;;;4998374;28;87376;-53
2023/12/23 04:17:59;;;;;;;;;;;2.40;89.10;;;;;;4994882;28;86891;-53
2023/12/23 04:20:25;;;;;;;;;;;2.40;89.20;;;;;;4997950;28;86800;-50
2023/12/23 04:22:50;;;;;;;;;;;2.40;89.10;;;;;;4994658;28;87045;-53
2023/12/23 04:25:16;;;;;;;;;;;2.40;89.10;;;;;;4998151;28;86887;-50
2023/12/23 04:27:41;;;;;;;;;;;2.40;89.00;;;;;;4997281;28;88377;-54
2023/12/23 04:30:07;;;;;;;;;;;2.40;89.10;;;;;;4994187;28;87038;-52
2023/12/23 04:32:32;;;;;;;;;;;2.40;89.30;;;;;;4998012;28;87089;-50
2023/12/23 04:34:59;;;;;;;;;;;2.30;89.10;;;;;;4996031;28;86985;-50
2023/12/23 04:37:25;;;;;;;;;;;2.40;89.20;;;;;;4997589;28;88021;-52
2023/12/23 04:39:50;;;;;;;;;;;2.40;89.20;;;;;;4997236;28;87074;-50
2023/12/23 04:42:16;;;;;;;;;;;2.40;89.30;;;;;;5003780;28;86942;-52
2023/12/23 04:44:41;;;;;;;;;;;2.40;89.30;;;;;;5003512;28;86156;-52
2023/12/23 04:47:07;;;;;;;;;;;2.40;89.30;;;;;;4999988;28;87259;-54
2023/12/23 04:49:33;;;;;;;;;;;2.40;89.20;;;;;;4998255;28;87203;-52
2023/12/23 04:51:58;;;;;;;;;;;2.40;89.30;;;;;;5002986;28;88603;-55
2023/12/23 04:54:24;;;;;;;;;;;2.40;89.20;;;;;;5002063;28;88674;-54
2023/12/23 04:56:49;;;;;;;;;;;2.40;89.20;;;;;;5001190;28;86863;-51
2023/12/23 04:59:15;;;;;;;;;;;2.40;89.10;;;;;;4996987;28;87404;-51
2023/12/23 05:01:40;;;;;;;;;;;2.40;89.20;;;;;;5000690;28;87102;-52
2023/12/23 05:04:06;;;;;;;;;;;2.40;89.40;;;;;;4997911;28;87024;-51
2023/12/23 05:06:31;;;;;;;;;;;2.40;89.20;;;;;;4999210;28;87416;-53
2023/12/23 05:08:57;;;;;;;;;;;2.30;89.30;;;;;;5001155;28;86235;-54
2023/12/23 05:11:23;;;;;;;;;;;2.40;89.20;;;;;;4998741;28;86795;-52
2023/12/23 05:13:49;;;;;;;;;;;2.40;89.20;;;;;;4999949;28;87307;-53
2023/12/23 05:16:14;;;;;;;;;;;2.40;89.10;;;;;;5000277;28;88049;-52
2023/12/23 05:18:40;;;;;;;;;;;2.40;89.20;;;;;;4997515;28;87527;-54
2023/12/23 05:21:05;;;;;;;;;;;2.40;89.30;;;;;;5000916;28;87157;-50
2023/12/23 05:23:31;;;;;;;;;;;2.40;89.20;;;;;;5001319;28;87014;-50
2023/12/23 05:25:56;;;;;;;;;;;2.30;89.20;;;;;;4998566;28;87477;-52
2023/12/23 05:28:22;;;;;;;;;;;2.30;89.20;;;;;;4997623;28;87132;-51
2023/12/23 05:30:48;;;;;;;;;;;2.40;89.30;;;;;;5000373;28;86879;-51
2023/12/23 05:33:13;;;;;;;;;;;2.30;89.20;;;;;;4997160;28;86482;-53
2023/12/23 05:35:39;;;;;;;;;;;2.40;89.30;;;;;;5006068;28;87664;-53
2023/12/23 05:38:04;;;;;;;;;;;2.40;89.10;;;;;;4996804;28;87480;-54
2023/12/23 05:40:30;;;;;;;;;;;2.30;89.20;;;;;;4998918;28;87990;-52
2023/12/23 05:42:55;;;;;;;;;;;2.30;89.30;;;;;;4997949;28;87683;-49
2023/12/23 05:45:21;;;;;;;;;;;2.40;89.20;;;;;;4998762;28;87347;-51
2023/12/23 05:47:49;;;;;;;;;;;2.40;89.30;;;;;;4998306;28;87008;-53
2023/12/23 05:50:15;;;;;;;;;;;2.40;89.30;;;;;;4996231;28;87872;-54
2023/12/23 05:52:41;;;;;;;;;;;2.40;89.20;;;;;;4993347;28;88514;-51
2023/12/23 05:55:07;;;;;;;;;;;2.40;89.20;;;;;;4997100;28;87280;-50
2023/12/23 05:57:32;;;;;;;;;;;2.40;89.30;;;;;;5000004;28;86958;-50
2023/12/23 05:59:58;;;;;;;;;;;2.30;89.30;;;;;;4997578;28;87278;-54
2023/12/23 06:02:23;;;;;;;;;;;2.40;89.20;;;;;;5003792;28;87010;-53
2023/12/23 06:04:49;;;;;;;;;;;2.40;89.30;;;;;;4994944;28;88452;-54
2023/12/23 06:07:14;;;;;;;;;;;2.40;89.40;;;;;;4995985;28;87058;-50
2023/12/23 06:09:40;;;;;;;;;;;2.30;89.20;;;;;;4995412;28;87395;-49
2023/12/23 06:12:06;;;;;;;;;;;2.40;89.30;;;;;;4997957;28;87327;-52
2023/12/23 06:14:31;;;;;;;;;;;2.40;89.20;;;;;;4999748;28;87084;-50
2023/12/23 06:16:57;;;;;;;;;;;2.40;89.40;;;;;;4996726;28;86857;-55
2023/12/23 06:19:23;;;;;;;;;;;2.40;89.30;;;;;;5006136;28;87636;-51
2023/12/23 06:21:48;;;;;;;;;;;2.40;89.20;;;;;;4996779;28;87186;-50
2023/12/23 06:24:14;;;;;;;;;;;2.40;89.20;;;;;;4997515;28;87441;-50
2023/12/23 06:26:40;;;;;;;;;;;2.40;89.70;;;;;;4998780;28;87027;-51
2023/12/23 06:29:05;;;;;;;;;;;2.40;89.10;;;;;;5000929;28;87948;-54
2023/12/23 06:31:31;;;;;;;;;;;2.40;89.20;;;;;;4991775;28;88548;-50
2023/12/23 06:33:57;;;;;;;;;;;2.40;89.20;;;;;;5000063;28;86981;-52
2023/12/23 06:36:22;;;;;;;;;;;2.40;89.30;;;;;;5001073;28;86941;-50
2023/12/23 06:38:48;;;;;;;;;;;2.30;89.20;;;;;;5001587;28;87336;-50
2023/12/23 06:41:14;;;;;;;;;;;2.40;89.40;;;;;;5003373;28;87841;-54
2023/12/23 06:43:39;;;;;;;;;;;2.40;89.20;;;;;;4993832;28;87428;-50
2023/12/23 06:46:05;;;;;;;;;;;2.40;89.20;;;;;;4997236;28;86244;-53
2023/12/23 06:48:30;;;;;;;;;;;2.40;89.30;;;;;;5003008;28;87026;-52
2023/12/23 06:50:56;;;;;;;;;;;2.40;89.10;;;;;;4992708;28;87634;-52
2023/12/23 06:53:22;;;;;;;;;;;2.40;89.20;;;;;;4993540;28;87792;-51
2023/12/23 06:55:47;;;;;;;;;;;2.40;89.20;;;;;;4995244;28;87728;-51
2023/12/23 06:58:13;;;;;;;;;;;2.40;89.10;;;;;;5001061;28;87557;-50
2023/12/23 07:00:38;;;;;;;;;;;2.40;89.00;;;;;;5000899;28;87924;-53
2023/12/23 07:03:07;;;;;;;;;;;2.40;89.10;;;;;;5000515;28;86932;-51
2023/12/23 07:05:32;;;;;;;;;;;2.40;89.20;;;;;;4996595;28;87243;-51
2023/12/23 07:07:58;;;;;;;;;;;2.40;89.20;;;;;;4999304;28;87128;-50
2023/12/23 07:10:23;;;;;;;;;;;2.50;89.20;;;;;;4998260;28;86263;-54
2023/12/23 07:12:49;;;;;;;;;;;2.40;89.20;;;;;;4998212;28;87029;-50
2023/12/23 07:15:15;;;;;;;;;;;2.40;89.30;;;;;;4997151;28;87055;-53
2023/12/23 07:17:40;;;;;;;;;;;2.40;89.30;;;;;;4991131;28;88150;-51
2023/12/23 07:20:07;;;;;;;;;;;2.40;89.30;;;;;;4992390;28;87051;-50
2023/12/23 07:22:32;;;;;;;;;;;2.40;89.10;;;;;;4999714;28;87037;-50
2023/12/23 07:24:58;;;;;;;;;;;2.40;89.10;;;;;;4994848;28;87063;-49
2023/12/23 07:27:23;;;;;;;;;;;2.50;89.20;;;;;;4994360;28;88443;-51
2023/12/23 07:29:49;;;;;;;;;;;2.40;89.00;;;;;;4993868;28;89601;-52
2023/12/23 07:32:14;;;;;;;;;;;2.50;89.60;;;;;;5001347;28;86850;-50
2023/12/23 07:34:40;;;;;;;;;;;2.50;89.10;;;;;;4998560;28;86796;-53
2023/12/23 07:37:07;;;;;;;;;;;2.50;89.00;;;;;;4995382;28;87611;-50
2023/12/23 07:39:33;;;;;;;;;;;2.50;89.20;;;;;;4996394;28;87969;-51
2023/12/23 07:41:58;;;;;;;;;;;2.50;89.30;;;;;;4996595;28;88020;-51
2023/12/23 07:44:24;;;;;;;;;;;2.50;89.20;;;;;;4993971;28;87427;-53
2023/12/23 07:46:50;;;;;;;;;;;2.50;89.00;;;;;;4992920;28;87098;-49
2023/12/23 07:49:15;;;;;;;;;;;2.50;88.90;;;;;;4994112;28;88425;-50
2023/12/23 07:51:41;;;;;;;;;;;2.50;89.00;;;;;;4999000;28;87048;-51
2023/12/23 07:54:06;;;;;;;;;;;2.50;88.90;;;;;;4993542;28;87942;-51
2023/12/23 07:56:32;;;;;;;;;;;2.50;89.00;;;;;;4994770;28;87371;-52
2023/12/23 07:58:57;;;;;;;;;;;2.50;88.80;;;;;;4998373;28;86394;-49
2023/12/23 08:01:23;;;;;;;;;;;2.50;88.70;;;;;;4993358;28;86987;-50
2023/12/23 08:03:49;;;;;;;;;;;2.60;88.80;;;;;;4996925;28;87569;-52
2023/12/23 08:06:18;;;;;;;;;;;2.60;88.90;;;;;;4997050;28;90065;-51
2023/12/23 08:08:44;;;;;;;;;;;2.50;88.90;;;;;;5001691;28;88636;-50
2023/12/23 08:11:10;;;;;;;;;;;2.60;88.80;;;;;;4990139;28;87437;-52
2023/12/23 08:13:36;;;;;;;;;;;2.50;89.00;;;;;;5000036;28;87068;-49
2023/12/23 08:16:02;;;;;;;;;;;2.60;89.10;;;;;;5001061;28;88470;-54
2023/12/23 08:18:28;;;;;;;;;;;2.50;89.20;;;;;;5001241;28;87004;-52
2023/12/23 08:20:53;;;;;;;;;;;2.50;89.20;;;;;;4999353;28;89829;-53
2023/12/23 08:23:19;;;;;;;;;;;2.50;89.10;;;;;;4999354;28;86942;-49
2023/12/23 08:25:46;;;;;;;;;;;2.50;88.90;;;;;;5000060;28;86885;-50
2023/12/23 08:28:11;;;;;;;;;;;2.60;89.00;;;;;;5002288;28;88102;-51
2023/12/23 08:30:37;;;;;;;;;;;2.60;89.20;;;;;;4997014;28;88014;-49
2023/12/23 08:33:03;;;;;;;;;;;2.60;89.10;;;;;;4996335;28;87639;-51
2023/12/23 08:35:28;;;;;;;;;;;2.60;89.40;;;;;;5000571;28;88632;-53
2023/12/23 08:37:54;;;;;;;;;;;2.60;89.30;;;;;;5001358;28;87023;-53
2023/12/23 08:40:20;;;;;;;;;;;2.60;89.40;;;;;;4999963;28;86879;-53
2023/12/23 08:42:45;;;;;;;;;;;2.60;89.20;;;;;;4995198;28;88620;-51
2023/12/23 08:45:11;;;;;;;;;;;2.70;89.20;;;;;;5000694;28;86978;-49
2023/12/23 08:47:37;;;;;;;;;;;2.60;89.40;;;;;;5000915;28;87227;-51
2023/12/23 08:50:02;;;;;;;;;;;2.60;89.50;;;;;;4998528;28;88326;-54
2023/12/23 08:52:28;;;;;;;;;;;2.70;89.70;;;;;;4997689;28;87029;-50
2023/12/23 08:54:53;;;;;;;;;;;2.70;89.60;;;;;;4998123;28;88230;-51
2023/12/23 08:57:19;;;;;;;;;;;2.70;89.80;;;;;;5003894;28;87001;-50
2023/12/23 08:59:45;;;;;;;;;;;2.60;89.70;;;;;;4996092;28;87079;-50
2023/12/23 09:02:10;;;;;;;;;;;2.70;89.60;;;;;;4999839;28;87595;-50
2023/12/23 09:04:36;;;;;;;;;;;2.70;90.00;;;;;;5003530;28;86887;-51
2023/12/23 09:07:01;;;;;;;;;;;2.60;89.80;;;;;;5002934;28;87025;-51
2023/12/23 09:09:27;;;;;;;;;;;2.60;89.70;;;;;;4998281;28;88532;-50
2023/12/23 09:11:53;;;;;;;;;;;2.70;89.70;;;;;;5004455;28;86125;-51
2023/12/23 09:14:18;;;;;;;;;;;2.70;89.90;;;;;;5000908;28;88543;-49
2023/12/23 09:16:44;;;;;;;;;;;2.70;90.00;;;;;;4997827;28;87094;-49
2023/12/23 09:19:09;;;;;;;;;;;2.70;89.80;;;;;;4997411;28;87975;-49
2023/12/23 09:21:35;;;;;;;;;;;2.70;89.70;;;;;;5001748;28;87461;-54
2023/12/23 09:24:01;;;;;;;;;;;2.70;90.10;;;;;;5000809;28;86997;-50
2023/12/23 09:26:26;;;;;;;;;;;2.70;89.90;;;;;;5000850;28;86977;-50
2023/12/23 09:28:52;;;;;;;;;;;2.70;90.30;;;;;;4992570;28;86904;-50
2023/12/23 09:31:18;;;;;;;;;;;2.60;90.00;;;;;;4999109;28;87232;-51
2023/12/23 09:33:44;;;;;;;;;;;2.70;90.10;;;;;;4998571;28;87350;-50
2023/12/23 09:36:10;;;;;;;;;;;2.70;90.30;;;;;;4998206;28;86390;-50
2023/12/23 09:38:36;;;;;;;;;;;2.60;90.00;;;;;;4997353;28;87009;-50
2023/12/23 09:41:02;;;;;;;;;;;2.60;90.20;;;;;;5004201;28;88594;-53
2023/12/23 09:43:28;;;;;;;;;;;2.60;90.20;;;;;;5001990;28;87987;-51
2023/12/23 09:45:54;;;;;;;;;;;2.60;90.20;;;;;;4996631;28;88888;-51
2023/12/23 09:48:19;;;;;;;;;;;2.60;90.30;;;;;;4993908;28;87714;-51
2023/12/23 09:50:45;;;;;;;;;;;2.50;90.30;;;;;;4998458;28;86878;-51
2023/12/23 09:53:12;;;;;;;;;;;2.60;90.30;;;;;;5005023;28;87943;-52
2023/12/23 09:55:38;;;;;;;;;;;2.50;90.30;;;;;;4995830;28;87078;-52
2023/12/23 09:58:04;;;;;;;;;;;2.50;90.30;;;;;;4995732;28;86991;-52
2023/12/23 10:00:30;;;;;;;;;;;2.50;90.30;;;;;;4999932;28;87922;-50
2023/12/23 10:02:55;;;;;;;;;;;2.50;90.60;;;;;;4998946;28;86966;-52
2023/12/23 10:05:21;;;;;;;;;;;2.60;90.80;;;;;;5001616;28;87233;-51
2023/12/23 10:07:46;;;;;;;;;;;2.60;90.70;;;;;;4997812;28;89410;-53
2023/12/23 10:10:12;;;;;;;;;;;2.60;90.60;;;;;;5000120;28;87076;-53
2023/12/23 10:12:37;;;;;;;;;;;2.70;90.50;;;;;;4996841;28;88952;-51
2023/12/23 10:15:03;;;;;;;;;;;2.70;90.50;;;;;;5000765;28;88427;-52
2023/12/23 10:17:31;;;;;;;;;;;2.70;90.50;;;;;;4995912;28;88052;-54
2023/12/23 10:19:56;;;;;;;;;;;2.70;90.30;;;;;;4996377;28;87303;-52
2023/12/23 10:22:22;;;;;;;;;;;2.70;90.50;;;;;;4998208;28;87120;-51
2023/12/23 10:24:48;;;;;;;;;;;2.70;90.40;;;;;;4997529;28;86696;-51
2023/12/23 10:27:15;;;;;;;;;;;2.70;90.30;;;;;;5000149;28;87057;-54
2023/12/23 10:29:43;;;;;;;;;;;2.70;90.60;;;;;;4998969;28;87035;-51
2023/12/23 10:32:11;;;;;;;;;;;2.70;90.50;;;;;;4999275;28;88030;-51
2023/12/23 10:34:49;;;;;;;;;;;2.80;90.70;;;;;;4991926;28;87533;-52
2023/12/23 10:37:16;;;;;;;;;;;2.70;90.80;;;;;;5004544;28;86978;-55
2023/12/23 10:39:54;;;;;;;;;;;2.80;90.70;;;;;;4998769;28;88584;-52
2023/12/23 10:42:22;;;;;;;;;;;2.80;90.60;;;;;;4996768;28;87018;-51
2023/12/23 10:44:48;;;;;;;;;;;2.70;90.60;;;;;;5000095;28;88133;-52
2023/12/23 10:47:15;;;;;;;;;;;2.80;90.60;;;;;;4995186;28;87633;-51
2023/12/23 10:49:42;;;;;;;;;;;2.70;90.50;;;;;;4996723;28;86272;-52
2023/12/23 10:52:08;;;;;;;;;;;2.80;90.70;;;;;;4999469;28;87630;-52
2023/12/23 10:54:35;;;;;;;;;;;2.80;90.80;;;;;;4999454;28;87412;-52
2023/12/23 10:57:01;;;;;;;;;;;2.80;90.70;;;;;;5004079;28;88067;-53
2023/12/23 10:59:26;;;;;;;;;;;2.80;90.70;;;;;;4996164;28;87803;-53
2023/12/23 11:01:52;;;;;;;;;;;2.90;90.80;;;;;;4997821;28;87022;-53
2023/12/23 11:04:19;;;;;;;;;;;2.90;90.70;;;;;;4995652;28;86928;-50
2023/12/23 11:06:46;;;;;;;;;;;2.90;90.80;;;;;;4995387;28;88662;-55
2023/12/23 11:09:12;;;;;;;;;;;2.90;91.00;;;;;;4996335;28;87119;-50
2023/12/23 11:11:39;;;;;;;;;;;2.90;90.70;;;;;;4993101;28;87173;-51
2023/12/23 11:14:07;;;;;;;;;;;2.90;90.80;;;;;;5000758;28;86794;-52
2023/12/23 11:16:32;;;;;;;;;;;2.90;90.80;;;;;;5000663;28;87085;-51
2023/12/23 11:18:58;;;;;;;;;;;2.90;90.80;;;;;;4998090;28;88849;-51
2023/12/23 11:21:24;;;;;;;;;;;2.90;90.90;;;;;;4992847;28;87964;-53
2023/12/23 11:23:49;;;;;;;;;;;2.90;90.80;;;;;;4995019;28;88871;-52
2023/12/23 11:26:33;;;;;;;;;;;2.90;90.80;;;;;;4996412;28;88511;-52
2023/12/23 11:29:03;;;;;;;;;;;2.90;90.80;;;;;;4992313;28;86968;-53
2023/12/23 11:31:28;;;;;;;;;;;2.90;90.90;;;;;;4996352;28;88203;-53
2023/12/23 11:33:54;;;;;;;;;;;2.90;90.80;;;;;;4998144;28;87389;-50
2023/12/23 11:36:20;;;;;;;;;;;2.90;90.90;;;;;;4998934;28;87033;-51
2023/12/23 11:38:50;;;;;;;;;;;2.90;90.90;;;;;;4991526;28;88037;-53
2023/12/23 11:41:16;;;;;;;;;;;2.90;90.80;;;;;;4998492;28;88385;-49
2023/12/23 11:43:46;;;;;;;;;;;2.90;90.80;;;;;;4995116;28;86978;-51
2023/12/23 11:46:12;;;;;;;;;;;2.90;90.90;;;;;;4997241;28;89424;-49
2023/12/23 11:48:37;;;;;;;;;;;3.00;90.90;;;;;;4996557;28;87806;-51
2023/12/23 11:51:04;;;;;;;;;;;3.00;90.80;;;;;;4997480;28;87008;-54
2023/12/23 11:53:29;;;;;;;;;;;2.90;90.80;;;;;;4997533;28;87438;-49
2023/12/23 11:55:55;;;;;;;;;;;3.00;90.90;;;;;;4999701;28;87067;-54
2023/12/23 11:58:22;;;;;;;;;;;3.00;90.80;;;;;;4997765;28;88732;-52
2023/12/23 12:00:51;;;;;;;;;;;3.00;90.80;;;;;;4996000;28;87503;-52
2023/12/23 12:03:17;;;;;;;;;;;3.00;90.90;;;;;;4998380;28;86094;-52
2023/12/23 12:05:43;;;;;;;;;;;3.00;90.90;;;;;;4993654;28;87379;-49
2023/12/23 12:08:09;;;;;;;;;;;3.00;90.90;;;;;;4993395;28;87038;-50
2023/12/23 12:10:34;;;;;;;;;;;3.00;90.80;;;;;;4996519;28;88063;-52
2023/12/23 12:13:00;;;;;;;;;;;3.00;90.90;;;;;;4998365;28;87348;-51
2023/12/23 12:15:25;;;;;;;;;;;3.00;90.80;;;;;;4998617;28;87247;-50
2023/12/23 12:17:52;;;;;;;;;;;3.10;90.80;;;;;;4994985;28;87599;-51
2023/12/23 12:20:18;;;;;;;;;;;3.00;90.90;;;;;;4997225;28;88372;-50
2023/12/23 12:22:45;;;;;;;;;;;3.10;90.90;;;;;;4994260;28;87023;-52
2023/12/23 12:25:10;;;;;;;;;;;3.10;90.70;;;;;;4996958;28;87846;-53
2023/12/23 12:27:37;;;;;;;;;;;3.10;90.80;;;;;;4994104;28;86946;-52
2023/12/23 12:30:02;;;;;;;;;;;3.10;90.80;;;;;;4997819;28;86915;-53
2023/12/23 12:32:28;;;;;;;;;;;3.10;90.80;;;;;;5030125;27;90221;-51
2023/12/23 12:35:03;;;;;;;;;;;3.10;90.70;;;;;;4989589;28;88990;-51
2023/12/23 12:37:28;;;;;;;;;;;3.10;90.70;;;;;;4995508;28;87803;-51
2023/12/23 12:39:54;;;;;;;;;;;3.10;90.80;;;;;;4997423;28;88467;-51
2023/12/23 12:42:20;;;;;;;;;;;3.10;90.80;;;;;;4994978;28;87064;-50
2023/12/23 12:44:47;;;;;;;;;;;3.10;90.90;;;;;;4992772;28;88717;-50
2023/12/23 12:47:12;;;;;;;;;;;3.10;90.70;;;;;;4994353;28;87593;-52
2023/12/23 12:49:45;;;;;;;;;;;3.10;90.80;;;;;;4997557;28;86945;-54
2023/12/23 12:52:11;;;;;;;;;;;3.20;91.10;;;;;;4992800;28;86718;-51
2023/12/23 12:54:36;;;;;;;;;;;3.20;90.60;;;;;;4996609;28;86961;-54
2023/12/23 12:57:02;;;;;;;;;;;3.20;90.60;;;;;;4993366;28;86822;-51
2023/12/23 12:59:28;;;;;;;;;;;3.20;90.70;;;;;;4993926;28;89455;-50
2023/12/23 13:01:54;;;;;;;;;;;3.20;90.70;;;;;;4999640;28;87208;-52
2023/12/23 13:04:20;;;;;;;;;;;3.20;90.70;;;;;;4998714;28;87853;-53
2023/12/23 13:06:45;;;;;;;;;;;3.20;90.80;;;;;;4996923;28;87689;-54
2023/12/23 13:09:12;;;;;;;;;;;3.20;90.70;;;;;;5004961;28;87103;-53
2023/12/23 13:11:37;;;;;;;;;;;3.20;90.60;;;;;;5000923;28;87431;-51
2023/12/23 13:14:03;;;;;;;;;;;3.20;90.80;;;;;;4995089;28;86792;-53
2023/12/23 13:16:28;;;;;;;;;;;3.20;90.80;;;;;;5001373;28;86512;-51
2023/12/23 13:18:54;;;;;;;;;;;3.20;90.90;;;;;;5001032;28;87023;-51
2023/12/23 13:21:20;;;;;;;;;;;3.20;90.80;;;;;;4997741;28;87012;-51
2023/12/23 13:23:48;;;;;;;;;;;3.20;90.90;;;;;;4999603;28;87830;-52
2023/12/23 13:26:14;;;;;;;;;;;3.30;90.90;;;;;;4997751;28;88367;-51
2023/12/23 13:28:40;;;;;;;;;;;3.30;90.90;;;;;;5001474;28;87295;-49
2023/12/23 13:31:05;;;;;;;;;;;3.30;91.00;;;;;;4996546;28;87062;-51
2023/12/23 13:33:31;;;;;;;;;;;3.30;90.90;;;;;;5003225;28;86975;-54
2023/12/23 13:35:56;;;;;;;;;;;3.30;91.00;;;;;;5004435;28;87110;-54
2023/12/23 13:38:25;;;;;;;;;;;3.30;90.90;;;;;;4997590;28;87493;-52
2023/12/23 13:40:50;;;;;;;;;;;3.30;90.90;;;;;;5000501;28;86380;-53
2023/12/23 13:43:16;;;;;;;;;;;3.30;91.00;;;;;;5001139;28;86806;-54
2023/12/23 13:45:41;;;;;;;;;;;3.30;91.00;;;;;;4996464;28;87464;-52
2023/12/23 13:48:07;;;;;;;;;;;3.30;91.10;;;;;;4996740;28;87979;-53
2023/12/23 13:50:33;;;;;;;;;;;3.20;91.00;;;;;;5002765;28;87756;-52
2023/12/23 13:52:58;;;;;;;;;;;3.30;91.00;;;;;;4992327;28;87003;-51
2023/12/23 13:55:24;;;;;;;;;;;3.20;90.90;;;;;;4997491;28;86938;-54
2023/12/23 13:57:49;;;;;;;;;;;3.30;90.90;;;;;;4999921;28;87386;-53
2023/12/23 14:00:15;;;;;;;;;;;3.30;90.90;;;;;;5004341;28;87016;-53
2023/12/23 14:02:40;;;;;;;;;;;3.30;91.00;;;;;;5000664;28;87300;-52
2023/12/23 14:05:06;;;;;;;;;;;3.30;91.00;;;;;;4999979;28;86809;-52
2023/12/23 14:07:32;;;;;;;;;;;3.30;91.10;;;;;;4997577;28;86998;-49
2023/12/23 14:09:57;;;;;;;;;;;3.20;91.00;;;;;;4999175;28;87040;-51
2023/12/23 14:12:23;;;;;;;;;;;3.30;91.10;;;;;;4999586;28;89745;-50
2023/12/23 14:14:49;;;;;;;;;;;3.30;91.00;;;;;;4995214;28;88743;-52
2023/12/23 14:17:15;;;;;;;;;;;3.30;91.00;;;;;;5001814;28;87563;-52
2023/12/23 14:19:41;;;;;;;;;;;3.30;90.90;;;;;;4992300;28;87298;-52
2023/12/23 14:22:08;;;;;;;;;;;3.30;90.90;;;;;;5002013;28;87935;-52